Time;durP1;ratioP1;P1;durP2;ratioP2;P2;SDS_P1;SDS_P2;PMS_P1;PMS_P2;Temp;Humidity;BMP_temperature;BMP_pressure;BME280_temperature;BME280_humidity;BME280_pressure;Samples;Min_cycle;Max_cycle;Signal;HPM_P1;HPM_P2
2021/04/03 00:00:54;;;;;;;15.35;12.75;;;;;;;7.60;52.65;100030.27;114522;1196;103203;-85
2021/04/03 00:03:22;;;;;;;17.83;13.23;;;;;;;7.59;52.41;100032.02;114561;1196;102111;-84
2021/04/03 00:05:50;;;;;;;13.27;11.40;;;;;;;7.59;52.59;100033.80;114264;1196;103594;-84
2021/04/03 00:08:32;;;;;;;18.33;13.63;;;;;;;7.57;52.99;100032.95;114206;1196;103970;-85
2021/04/03 00:11:05;;;;;;;14.27;12.43;;;;;;;7.57;52.91;100040.90;114103;1196;103432;-85
2021/04/03 00:13:40;;;;;;;22.75;12.55;;;;;;;7.55;53.24;100040.08;114219;1196;103342;-86
2021/04/03 00:16:07;;;;;;;15.75;12.03;;;;;;;7.53;52.66;100038.32;114043;1196;104228;-84
2021/04/03 00:18:34;;;;;;;14.53;10.67;;;;;;;7.55;52.85;100042.72;114134;1196;103261;-84
2021/04/03 00:21:01;;;;;;;14.10;10.17;;;;;;;7.55;52.79;100035.63;114556;1196;103101;-84
2021/04/03 00:23:27;;;;;;;14.38;10.45;;;;;;;7.55;52.95;100035.63;114745;1196;103294;-85
2021/04/03 00:25:56;;;;;;;14.85;10.70;;;;;;;7.55;52.98;100035.63;114643;1196;103132;-85
2021/04/03 00:28:23;;;;;;;12.53;10.63;;;;;;;7.51;52.71;100037.46;114543;1196;103182;-84
2021/04/03 00:30:50;;;;;;;12.77;10.63;;;;;;;7.51;52.94;100033.95;114475;1196;103188;-84
2021/04/03 00:33:16;;;;;;;11.40;10.10;;;;;;;7.47;52.58;100027.83;114528;1196;103060;-84
2021/04/03 00:35:46;;;;;;;13.33;9.80;;;;;;;7.44;53.11;100030.55;114243;1196;103907;-85
2021/04/03 00:38:13;;;;;;;14.53;10.55;;;;;;;7.40;53.00;100034.16;114265;1196;103137;-84
2021/04/03 00:40:48;;;;;;;11.40;8.90;;;;;;;7.41;52.96;100029.72;114476;1196;103204;-84
2021/04/03 00:43:22;;;;;;;11.23;9.10;;;;;;;7.34;53.16;100026.32;114554;1196;103040;-88
2021/04/03 00:45:49;;;;;;;11.45;9.90;;;;;;;7.22;53.28;100023.91;114568;1196;103101;-84
2021/04/03 00:48:16;;;;;;;13.70;10.20;;;;;;;7.18;53.50;100029.28;114563;1196;103510;-84
2021/04/03 00:50:46;;;;;;;12.90;10.30;;;;;;;7.17;53.64;100024.88;114646;1196;103086;-84
2021/04/03 00:53:15;;;;;;;13.90;9.90;;;;;;;7.12;53.47;100024.08;114645;1196;103089;-85
2021/04/03 00:55:44;;;;;;;11.80;9.18;;;;;;;7.16;53.34;100027.55;114731;1196;103003;-84
2021/04/03 00:58:11;;;;;;;10.73;9.63;;;;;;;7.18;53.52;100025.73;114489;1196;103108;-85
2021/04/03 01:00:38;;;;;;;17.10;10.83;;;;;;;7.19;53.17;100019.55;114526;1196;103155;-84
2021/04/03 01:03:06;;;;;;;10.13;9.13;;;;;;;7.19;53.18;100016.89;114628;1196;103255;-84
2021/04/03 01:05:47;;;;;;;10.98;9.08;;;;;;;7.21;53.19;100017.75;114396;1199;103387;-84
2021/04/03 01:08:14;;;;;;;12.60;9.73;;;;;;;7.20;53.05;100021.30;114339;1199;103264;-85
2021/04/03 01:10:51;;;;;;;13.57;9.17;;;;;;;7.18;53.15;100018.69;114527;1196;103323;-84
2021/04/03 01:13:17;;;;;;;10.47;8.17;;;;;;;7.17;53.06;100021.34;114538;1196;103101;-84
2021/04/03 01:16:06;;;;;;;12.00;9.97;;;;;;;7.15;53.00;100028.45;114526;1196;103213;-83
2021/04/03 01:18:56;;;;;;;10.80;9.03;;;;;;;7.04;53.16;100010.11;114331;1196;103185;-86
2021/04/03 01:21:48;;;;;;;13.57;10.20;;;;;;;7.06;53.13;100032.13;114273;1196;103286;-84
2021/04/03 01:24:31;;;;;;;11.77;8.40;;;;;;;7.06;53.43;100029.48;114450;1196;103107;-83
2021/04/03 01:27:21;;;;;;;10.40;8.07;;;;;;;7.04;53.43;100033.95;114439;1196;103337;-83
2021/04/03 01:29:51;;;;;;;14.23;9.23;;;;;;;7.05;53.36;100024.21;114392;1196;103309;-85
2021/04/03 01:32:57;;;;;;;10.43;8.68;;;;;;;7.05;53.67;100016.27;114440;1196;103171;-85
2021/04/03 01:35:30;;;;;;;13.15;9.35;;;;;;;7.03;53.84;100025.11;114391;1196;103197;-84
2021/04/03 01:38:05;;;;;;;12.40;10.13;;;;;;;7.02;53.62;100026.03;114584;1196;103081;-84
2021/04/03 01:40:32;;;;;;;11.90;10.35;;;;;;;6.97;54.03;100021.70;114371;1196;103082;-84
2021/04/03 01:43:06;;;;;;;14.63;9.05;;;;;;;6.97;54.30;100022.59;114460;1196;103574;-84
2021/04/03 01:45:33;;;;;;;12.60;9.68;;;;;;;6.94;54.30;100017.33;114413;1196;103750;-85
2021/04/03 01:48:01;;;;;;;12.10;9.40;;;;;;;6.96;54.73;100022.63;114377;1196;103242;-84
2021/04/03 01:50:28;;;;;;;14.13;9.10;;;;;;;6.90;54.74;100031.52;114350;1196;103159;-84
2021/04/03 01:52:54;;;;;;;10.90;9.13;;;;;;;6.92;54.79;100028.84;114374;1196;103840;-84
2021/04/03 01:55:21;;;;;;;14.57;11.20;;;;;;;6.92;54.75;100027.09;114368;1196;103229;-85
2021/04/03 01:57:51;;;;;;;12.90;10.35;;;;;;;6.92;55.23;100026.19;114490;1196;103238;-84
2021/04/03 02:00:26;;;;;;;16.80;10.55;;;;;;;6.90;55.00;100028.88;114388;1195;103176;-84
2021/04/03 02:02:53;;;;;;;15.48;10.10;;;;;;;6.91;55.20;100022.69;114219;1196;103201;-84
2021/04/03 02:05:21;;;;;;;14.60;10.15;;;;;;;6.90;55.22;100025.36;114275;1196;106056;-83
2021/04/03 02:07:49;;;;;;;12.17;9.87;;;;;;;6.82;55.78;100023.73;114487;1196;103211;-84
2021/04/03 02:10:25;;;;;;;12.40;10.40;;;;;;;6.78;55.81;100014.07;114383;1196;103127;-85
2021/04/03 02:12:52;;;;;;;19.30;11.57;;;;;;;6.76;55.71;100020.28;114353;1196;103303;-85
2021/04/03 02:15:21;;;;;;;13.08;9.68;;;;;;;6.70;56.01;100021.27;114377;1196;103100;-84
2021/04/03 02:17:51;;;;;;;10.37;8.10;;;;;;;6.67;56.01;100023.98;114529;1196;103300;-85
2021/04/03 02:20:17;;;;;;;21.23;8.30;;;;;;;6.64;56.23;100029.33;114403;1196;103293;-84
2021/04/03 02:22:45;;;;;;;14.73;9.47;;;;;;;6.63;56.55;100024.93;114293;1196;103143;-86
2021/04/03 02:25:14;;;;;;;13.00;11.23;;;;;;;6.59;56.41;100032.03;114343;1196;103046;-84
2021/04/03 02:27:42;;;;;;;12.60;9.40;;;;;;;6.60;56.62;100040.87;114140;1194;103168;-83
2021/04/03 02:30:18;;;;;;;13.43;8.83;;;;;;;6.55;56.91;100040.06;113949;1196;103142;-84
2021/04/03 02:32:49;;;;;;;11.63;8.53;;;;;;;6.42;56.75;100037.58;113815;1196;103156;-83
2021/04/03 02:35:18;;;;;;;11.87;8.23;;;;;;;6.34;57.23;100040.36;113712;1196;103667;-84
2021/04/03 02:37:52;;;;;;;12.70;8.48;;;;;;;6.28;57.31;100034.30;113828;1196;103145;-84
2021/04/03 02:40:21;;;;;;;10.68;8.63;;;;;;;6.23;57.49;100036.13;113886;1196;103110;-85
2021/04/03 02:43:13;;;;;;;13.35;8.40;;;;;;;6.22;57.60;100021.15;113966;1196;103243;-82
2021/04/03 02:45:44;;;;;;;13.03;7.93;;;;;;;6.21;57.56;100032.61;114625;1196;103214;-83
2021/04/03 02:48:18;;;;;;;12.33;7.60;;;;;;;6.24;57.75;100030.81;115062;1196;103182;-85
2021/04/03 02:50:50;;;;;;;10.23;7.70;;;;;;;6.23;57.32;100028.19;115126;1196;103114;-84
2021/04/03 02:53:19;;;;;;;13.50;8.93;;;;;;;6.15;57.27;100031.80;115249;1196;103124;-85
2021/04/03 02:55:53;;;;;;;9.83;8.43;;;;;;;6.15;57.15;100049.45;115087;1196;103027;-83
2021/04/03 02:58:22;;;;;;;7.60;6.87;;;;;;;6.08;56.65;100046.02;114821;1196;103280;-84
2021/04/03 03:00:55;;;;;;;14.23;8.00;;;;;;;6.08;56.49;100043.38;114395;1196;103201;-86
2021/04/03 03:03:22;;;;;;;9.60;7.07;;;;;;;6.04;56.08;100044.31;114449;1196;103117;-85
2021/04/03 03:05:50;;;;;;;9.90;7.00;;;;;;;6.03;56.34;100055.77;114428;1196;103308;-84
2021/04/03 03:08:18;;;;;;;7.83;6.37;;;;;;;5.99;56.50;100054.93;114461;1196;103053;-82
2021/04/03 03:10:46;;;;;;;8.67;6.57;;;;;;;5.94;56.67;100058.50;114315;1196;103159;-83
2021/04/03 03:13:14;;;;;;;5.77;5.07;;;;;;;5.90;56.83;100056.80;114388;1196;103200;-84
2021/04/03 03:15:41;;;;;;;6.53;4.97;;;;;;;5.90;57.14;100068.23;114322;1196;103075;-84
2021/04/03 03:18:08;;;;;;;7.50;4.73;;;;;;;5.86;57.49;100069.16;114295;1196;103236;-82
2021/04/03 03:20:35;;;;;;;5.90;5.43;;;;;;;5.79;57.12;100057.80;114305;1196;103056;-83
2021/04/03 03:23:02;;;;;;;7.20;5.77;;;;;;;5.77;57.81;100054.31;114380;1196;103128;-84
2021/04/03 03:25:43;;;;;;;7.97;6.00;;;;;;;5.75;57.93;100057.86;114141;1199;103399;-85
2021/04/03 03:28:10;;;;;;;6.38;5.58;;;;;;;5.75;57.73;100060.51;114261;1199;103166;-84
2021/04/03 03:30:38;;;;;;;7.43;5.60;;;;;;;5.74;57.97;100058.75;114135;1200;103187;-85
2021/04/03 03:33:20;;;;;;;6.78;5.53;;;;;;;5.74;58.42;100067.54;113973;1202;103581;-85
2021/04/03 03:35:47;;;;;;;7.25;5.48;;;;;;;5.67;58.50;100068.52;113995;1201;103254;-83
2021/04/03 03:38:14;;;;;;;5.75;5.20;;;;;;;5.67;59.68;100071.16;114111;1199;103332;-84
2021/04/03 03:40:40;;;;;;;7.90;6.40;;;;;;;5.66;60.47;100079.97;114185;1200;103552;-83
2021/04/03 03:43:15;;;;;;;6.83;6.23;;;;;;;5.61;60.05;100076.50;113965;1200;103321;-81
2021/04/03 03:45:44;;;;;;;9.10;5.65;;;;;;;5.54;62.11;100078.34;113915;1200;103114;-84
2021/04/03 03:48:11;;;;;;;7.60;5.40;;;;;;;5.45;62.10;100076.69;114125;1199;103677;-81
2021/04/03 03:50:38;;;;;;;6.63;6.03;;;;;;;5.44;62.15;100080.22;114037;1199;104726;-83
2021/04/03 03:53:05;;;;;;;7.00;6.23;;;;;;;5.50;63.22;100090.73;113773;1199;103290;-81
2021/04/03 03:55:32;;;;;;;6.70;5.45;;;;;;;5.55;63.07;100082.73;113906;1199;103315;-80
2021/04/03 03:57:59;;;;;;;6.00;5.30;;;;;;;5.48;64.71;100084.57;113943;1200;103469;-84
2021/04/03 04:00:25;;;;;;;11.00;6.33;;;;;;;5.34;64.97;100089.11;113894;1199;103418;-81
2021/04/03 04:02:52;;;;;;;6.10;5.27;;;;;;;5.28;64.79;100084.77;113913;1196;103113;-82
2021/04/03 04:05:19;;;;;;;5.60;5.07;;;;;;;5.31;65.18;100091.80;113968;1196;103169;-80
2021/04/03 04:07:46;;;;;;;5.20;4.80;;;;;;;5.27;65.08;100095.36;114206;1195;103162;-79
2021/04/03 04:10:13;;;;;;;5.23;4.68;;;;;;;5.11;65.44;100103.41;114145;1196;103267;-80
2021/04/03 04:12:40;;;;;;;5.08;4.45;;;;;;;4.99;65.99;100101.73;114053;1196;103289;-80
2021/04/03 04:15:08;;;;;;;4.20;3.80;;;;;;;4.93;67.08;100099.17;114183;1196;103203;-81
2021/04/03 04:17:35;;;;;;;4.90;4.20;;;;;;;4.91;66.89;100097.43;114026;1196;103276;-83
2021/04/03 04:20:03;;;;;;;5.57;4.20;;;;;;;4.89;67.89;100107.97;114020;1196;103210;-79
2021/04/03 04:22:29;;;;;;;9.78;4.90;;;;;;;4.82;67.50;100101.00;113954;1196;103120;-79
2021/04/03 04:24:56;;;;;;;5.08;4.58;;;;;;;4.77;67.80;100097.52;113991;1196;103121;-79
2021/04/03 04:27:23;;;;;;;4.67;3.83;;;;;;;4.72;68.45;100102.84;114041;1196;103117;-78
2021/04/03 04:29:50;;;;;;;4.45;3.80;;;;;;;4.72;68.73;100105.48;114073;1196;103155;-79
2021/04/03 04:32:16;;;;;;;4.40;4.00;;;;;;;4.68;68.54;100098.48;114109;1196;103332;-80
2021/04/03 04:34:43;;;;;;;6.20;4.00;;;;;;;4.65;68.64;100104.65;114126;1196;103759;-79
2021/04/03 04:37:09;;;;;;;4.57;4.27;;;;;;;4.68;67.98;100103.75;114084;1196;103213;-79
2021/04/03 04:39:36;;;;;;;4.83;4.27;;;;;;;4.74;68.00;100105.47;113966;1196;103226;-80
2021/04/03 04:42:05;;;;;;;6.20;3.73;;;;;;;4.80;68.42;100102.80;114071;1196;103262;-80
2021/04/03 04:44:31;;;;;;;5.00;4.05;;;;;;;4.84;68.21;100102.74;113970;1196;103778;-80
2021/04/03 04:46:58;;;;;;;5.00;4.60;;;;;;;4.89;68.09;100105.33;114037;1195;103129;-80
2021/04/03 04:49:24;;;;;;;6.57;4.77;;;;;;;4.93;68.54;100100.91;113841;1196;103133;-79
2021/04/03 04:51:51;;;;;;;5.80;4.53;;;;;;;4.95;68.07;100097.38;113807;1196;103181;-80
2021/04/03 04:54:18;;;;;;;5.28;4.83;;;;;;;5.03;68.33;100102.59;113961;1196;103562;-80
2021/04/03 04:56:45;;;;;;;6.43;4.53;;;;;;;5.02;67.13;100100.84;113984;1196;103144;-79
2021/04/03 04:59:26;;;;;;;6.15;5.55;;;;;;;5.03;68.27;100113.16;113907;1196;103876;-79
2021/04/03 05:01:54;;;;;;;5.50;5.10;;;;;;;4.98;68.13;100112.31;114122;1196;103126;-78
2021/04/03 05:04:20;;;;;;;5.15;4.58;;;;;;;4.99;67.76;100106.16;113957;1196;103293;-80
2021/04/03 05:06:47;;;;;;;5.60;4.77;;;;;;;5.07;67.45;100111.38;113977;1196;103645;-80
2021/04/03 05:09:14;;;;;;;4.96;4.54;;;;;;;5.09;67.64;100112.22;114062;1197;103143;-78
2021/04/03 05:11:40;;;;;;;5.23;4.73;;;;;;;5.11;67.68;100123.66;114078;1196;103252;-79
2021/04/03 05:14:07;;;;;;;5.53;4.55;;;;;;;5.06;67.65;100122.81;114010;1196;103226;-80
2021/04/03 05:16:34;;;;;;;4.70;4.03;;;;;;;5.00;68.44;100124.61;114171;1196;103120;-78
2021/04/03 05:19:01;;;;;;;5.28;4.83;;;;;;;5.00;68.42;100129.89;114067;1196;103137;-80
2021/04/03 05:21:28;;;;;;;6.27;5.00;;;;;;;4.94;68.21;100134.34;113884;1196;103223;-80
2021/04/03 05:23:54;;;;;;;5.63;4.63;;;;;;;4.94;68.21;100136.98;113971;1196;103245;-78
2021/04/03 05:26:21;;;;;;;5.90;5.40;;;;;;;4.88;68.99;100137.91;114127;1196;103101;-81
2021/04/03 05:28:47;;;;;;;6.40;5.60;;;;;;;4.79;68.85;100138.84;114025;1196;103207;-79
2021/04/03 05:31:21;;;;;;;7.60;6.90;;;;;;;4.81;68.91;100136.18;113938;1196;103112;-78
2021/04/03 05:33:48;;;;;;;8.33;7.40;;;;;;;4.76;69.18;100138.87;114033;1196;103259;-80
2021/04/03 05:36:16;;;;;;;6.70;6.10;;;;;;;4.75;69.11;100147.66;113821;1196;106122;-80
2021/04/03 05:38:43;;;;;;;9.40;6.40;;;;;;;4.76;68.98;100138.87;113860;1196;103110;-80
2021/04/03 05:41:09;;;;;;;7.13;5.83;;;;;;;4.80;69.24;100142.38;113954;1195;103172;-80
2021/04/03 05:43:38;;;;;;;7.03;6.37;;;;;;;4.84;69.73;100141.45;113974;1196;103296;-79
2021/04/03 05:46:05;;;;;;;6.90;5.60;;;;;;;4.85;70.23;100144.08;114188;1196;103121;-79
2021/04/03 05:48:33;;;;;;;10.30;7.00;;;;;;;4.88;69.49;100139.66;114047;1196;103114;-79
2021/04/03 05:51:01;;;;;;;5.48;4.88;;;;;;;4.87;69.96;100141.42;114024;1196;103239;-78
2021/04/03 05:53:42;;;;;;;7.45;6.30;;;;;;;4.94;69.51;100136.98;113803;1196;103249;-80
2021/04/03 05:56:09;;;;;;;8.97;6.00;;;;;;;5.02;69.20;100136.05;113855;1196;103409;-80
2021/04/03 05:58:39;;;;;;;5.80;5.30;;;;;;;5.01;69.40;100144.84;113887;1195;103469;-79
2021/04/03 06:01:07;;;;;;;8.80;6.53;;;;;;;4.94;70.20;100143.13;113738;1196;103127;-79
2021/04/03 06:03:34;;;;;;;7.65;6.15;;;;;;;4.92;70.08;100142.27;113730;1196;104058;-79
2021/04/03 06:06:02;;;;;;;6.37;5.83;;;;;;;5.01;69.88;100141.31;113963;1196;103804;-80
2021/04/03 06:08:31;;;;;;;6.90;6.08;;;;;;;5.11;69.49;100144.77;113808;1196;103303;-79
2021/04/03 06:11:14;;;;;;;7.33;6.70;;;;;;;5.18;69.97;100142.08;113814;1196;103140;-78
2021/04/03 06:14:02;;;;;;;8.75;6.23;;;;;;;5.16;69.04;100145.62;113808;1196;103587;-79
2021/04/03 06:16:35;;;;;;;6.73;6.13;;;;;;;5.12;69.49;100146.53;113719;1196;103293;-80
2021/04/03 06:19:24;;;;;;;8.70;6.25;;;;;;;5.15;69.73;100143.86;113789;1196;103383;-80
2021/04/03 06:21:57;;;;;;;8.28;7.43;;;;;;;5.15;69.48;100141.22;113912;1196;103741;-80
2021/04/03 06:24:29;;;;;;;8.87;7.43;;;;;;;5.21;69.11;100146.42;113736;1196;103118;-80
2021/04/03 06:26:58;;;;;;;9.80;7.95;;;;;;;5.29;68.97;100147.27;113689;1196;103146;-81
2021/04/03 06:29:28;;;;;;;7.53;6.43;;;;;;;5.33;69.17;100148.98;113747;1196;103197;-80
2021/04/03 06:32:31;;;;;;;7.60;6.80;;;;;;;5.37;69.03;100155.09;113739;1196;103104;-80
2021/04/03 06:34:59;;;;;;;11.20;7.80;;;;;;;5.41;69.26;100150.67;113636;1196;103159;-80
2021/04/03 06:37:31;;;;;;;7.70;6.48;;;;;;;5.47;69.30;100155.91;113734;1196;103869;-80
2021/04/03 06:39:59;;;;;;;7.40;6.28;;;;;;;5.46;69.25;100151.50;113779;1196;103118;-81
2021/04/03 06:42:55;;;;;;;8.50;7.00;;;;;;;5.44;68.71;100151.52;113946;1196;103085;-81
2021/04/03 06:45:31;;;;;;;8.30;6.90;;;;;;;5.47;69.02;100150.62;113709;1196;103101;-81
2021/04/03 06:48:14;;;;;;;7.63;6.93;;;;;;;5.51;68.86;100154.98;113699;1196;103667;-81
2021/04/03 06:50:49;;;;;;;7.87;7.07;;;;;;;5.59;68.93;100160.20;113703;1196;103121;-80
2021/04/03 06:53:31;;;;;;;7.63;6.83;;;;;;;5.63;69.02;100164.55;113716;1196;103238;-80
2021/04/03 06:55:58;;;;;;;8.33;7.53;;;;;;;5.66;69.01;100159.23;113534;1196;103178;-78
2021/04/03 06:58:45;;;;;;;13.27;8.87;;;;;;;5.64;68.60;100163.67;113670;1196;103425;-80
2021/04/03 07:01:14;;;;;;;8.70;7.80;;;;;;;5.49;68.55;100152.36;113774;1196;103083;-80
2021/04/03 07:03:44;;;;;;;8.93;7.78;;;;;;;5.58;69.36;100172.51;114041;1196;103175;-81
2021/04/03 07:06:12;;;;;;;9.03;8.13;;;;;;;5.66;69.06;100178.63;113787;1196;103097;-81
2021/04/03 07:08:39;;;;;;;10.10;9.20;;;;;;;5.65;68.94;100175.97;113875;1196;103223;-80
2021/04/03 07:11:07;;;;;;;9.70;8.35;;;;;;;5.61;68.00;100182.17;113863;1196;103305;-81
2021/04/03 07:13:35;;;;;;;10.95;7.88;;;;;;;5.59;68.43;100184.83;113886;1196;103296;-81
2021/04/03 07:16:07;;;;;;;11.27;7.13;;;;;;;5.62;67.32;100186.57;113691;1196;103369;-82
2021/04/03 07:18:49;;;;;;;7.60;6.90;;;;;;;5.64;67.44;100198.88;113228;1200;103476;-81
2021/04/03 07:21:15;;;;;;;7.00;6.35;;;;;;;5.61;65.97;100198.02;113239;1199;103309;-82
2021/04/03 07:23:43;;;;;;;8.20;6.35;;;;;;;5.60;65.56;100199.80;113263;1196;103175;-83
2021/04/03 07:26:12;;;;;;;7.07;6.37;;;;;;;5.60;65.59;100207.73;113602;1196;103406;-83
2021/04/03 07:28:53;;;;;;;7.05;5.60;;;;;;;5.54;65.56;100218.34;113984;1196;103252;-83
2021/04/03 07:31:41;;;;;;;8.08;6.75;;;;;;;5.51;65.67;100219.23;113693;1200;103293;-82
2021/04/03 07:34:10;;;;;;;8.33;7.45;;;;;;;5.49;65.77;100220.14;114157;1199;103251;-81
2021/04/03 07:36:40;;;;;;;9.98;7.98;;;;;;;5.41;65.74;100227.25;113986;1196;103309;-83
2021/04/03 07:39:36;;;;;;;10.03;8.40;;;;;;;5.38;66.38;100228.15;114452;1196;103268;-83
2021/04/03 07:42:37;;;;;;;10.80;6.67;;;;;;;5.49;66.37;100239.52;114411;1196;103749;-85
2021/04/03 07:45:33;;;;;;;11.30;6.35;;;;;;;5.43;64.43;100231.64;114298;1196;103185;-83
2021/04/03 07:48:00;;;;;;;6.90;6.27;;;;;;;5.43;64.52;100236.92;114357;1196;103762;-83
2021/04/03 07:50:44;;;;;;;7.97;5.83;;;;;;;5.50;64.41;100243.03;114255;1196;103197;-83
2021/04/03 07:53:43;;;;;;;10.00;7.03;;;;;;;5.54;64.29;100242.11;114388;1196;103552;-84
2021/04/03 07:56:12;;;;;;;8.93;6.65;;;;;;;5.63;64.65;100249.09;114410;1196;103152;-87
2021/04/03 07:58:51;;;;;;;6.55;5.85;;;;;;;5.69;64.61;100241.99;114668;1196;103246;-85
2021/04/03 08:01:32;;;;;;;7.70;6.45;;;;;;;5.74;63.24;100251.64;114345;1199;103322;-85
2021/04/03 08:04:04;;;;;;;7.20;6.10;;;;;;;5.81;63.35;100258.61;114280;1199;103873;-85
2021/04/03 08:06:46;;;;;;;8.65;7.80;;;;;;;5.83;63.39;100267.41;114240;1199;103876;-86
2021/04/03 08:09:31;;;;;;;7.47;6.77;;;;;;;5.89;63.04;100266.48;113959;1201;103306;-85
2021/04/03 08:11:59;;;;;;;11.93;8.10;;;;;;;5.98;62.59;100271.71;114099;1201;103498;-83
2021/04/03 08:14:29;;;;;;;7.35;6.65;;;;;;;6.00;63.08;100273.45;114069;1203;103137;-84
2021/04/03 08:16:56;;;;;;;12.95;11.40;;;;;;;6.11;62.07;100270.70;114053;1202;103136;-85
2021/04/03 08:19:38;;;;;;;10.50;8.20;;;;;;;6.29;61.98;100274.03;113852;1204;103889;-86
2021/04/03 08:22:09;;;;;;;7.20;6.53;;;;;;;6.43;61.04;100281.84;113913;1203;103290;-86
2021/04/03 08:24:36;;;;;;;18.90;12.55;;;;;;;6.57;60.70;100281.66;113829;1205;103386;-86
2021/04/03 08:27:05;;;;;;;13.15;11.60;;;;;;;6.62;59.93;100291.29;113985;1203;103178;-86
2021/04/03 08:29:34;;;;;;;13.55;10.15;;;;;;;6.71;59.97;100290.32;113735;1203;103376;-85
2021/04/03 08:32:03;;;;;;;8.40;7.70;;;;;;;6.79;59.87;100292.88;113964;1205;103261;-84
2021/04/03 08:34:31;;;;;;;56.85;37.60;;;;;;;6.87;59.41;100293.65;113734;1203;103271;-86
2021/04/03 08:36:58;;;;;;;13.10;9.73;;;;;;;6.93;58.76;100290.94;113752;1204;103312;-85
2021/04/03 08:39:26;;;;;;;13.73;8.67;;;;;;;6.90;59.04;100296.25;113845;1203;103302;-84
2021/04/03 08:44:29;;;;;;;10.93;7.30;;;;;;;6.97;58.79;100304.98;115931;1192;103015;-82
2021/04/03 08:47:05;;;;;;;6.68;6.08;;;;;;;7.07;57.50;100300.47;115920;1199;102805;-82
2021/04/03 08:49:34;;;;;;;7.23;5.85;;;;;;;7.08;57.91;100305.73;115679;1199;103453;-82
2021/04/03 08:52:03;;;;;;;12.60;6.13;;;;;;;7.12;57.88;100301.28;115732;1198;102983;-82
2021/04/03 08:54:39;;;;;;;7.78;5.68;;;;;;;7.12;57.62;100306.58;115805;1198;102934;-81
2021/04/03 08:57:31;;;;;;;10.33;5.23;;;;;;;7.28;57.28;100309.89;115709;1198;103193;-81
2021/04/03 09:00:03;;;;;;;11.63;6.40;;;;;;;7.44;56.25;100307.89;115545;1199;103165;-80
2021/04/03 09:04:20;;;;;;;5.93;5.40;;;;;;;7.68;55.60;100306.63;114569;1192;103507;-83
2021/04/03 09:06:57;;;;;;;6.50;5.90;;;;;;;7.93;55.26;100306.21;114505;1196;103102;-84
2021/04/03 09:09:28;;;;;;;7.90;6.53;;;;;;;8.08;54.30;100305.06;114198;1196;103433;-81
2021/04/03 09:12:10;;;;;;;5.50;5.00;;;;;;;8.23;54.56;100303.94;114046;1196;103182;-83
2021/04/03 09:14:41;;;;;;;6.07;5.47;;;;;;;8.43;53.82;100309.73;114076;1196;103220;-83
2021/04/03 09:17:25;;;;;;;7.73;6.35;;;;;;;9.06;52.87;100312.93;113958;1196;106083;-81
2021/04/03 09:20:06;;;;;;;4.43;4.03;;;;;;;9.46;49.48;100316.48;113985;1195;103031;-82
2021/04/03 09:22:41;;;;;;;4.20;3.85;;;;;;;10.10;47.55;100315.83;113894;1196;103651;-83
2021/04/03 09:25:10;;;;;;;5.63;4.17;;;;;;;11.40;43.61;100307.74;113976;1196;103239;-82
2021/04/03 09:27:38;;;;;;;4.87;3.70;;;;;;;13.37;41.66;100305.34;113845;1196;103184;-86
2021/04/03 09:30:12;;;;;;;4.90;4.38;;;;;;;15.13;38.92;100306.81;113819;1196;103287;-81
2021/04/03 09:32:44;;;;;;;3.90;3.40;;;;;;;15.86;35.91;100296.14;113828;1196;103243;-84
2021/04/03 09:35:21;;;;;;;4.00;3.10;;;;;;;14.62;36.29;100304.60;113956;1196;103270;-83
2021/04/03 09:38:03;;;;;;;3.75;3.13;;;;;;;13.58;36.93;100312.56;114093;1196;103284;-85
2021/04/03 09:40:47;;;;;;;3.68;3.33;;;;;;;12.54;38.14;100293.28;113944;1196;103727;-85
2021/04/03 09:43:15;;;;;;;3.50;2.70;;;;;;;12.16;39.12;100316.86;114132;1196;103111;-83
2021/04/03 09:45:43;;;;;;;3.60;3.30;;;;;;;12.15;39.66;100316.91;114225;1196;103079;-80
2021/04/03 09:48:11;;;;;;;3.87;3.47;;;;;;;12.61;38.55;100311.73;113972;1196;103091;-83
2021/04/03 09:50:40;;;;;;;5.80;3.93;;;;;;;13.29;38.63;100314.55;113712;1196;103775;-82
2021/04/03 09:53:16;;;;;;;5.77;3.10;;;;;;;14.52;35.92;100306.80;113795;1196;103153;-84
2021/04/03 09:55:58;;;;;;;5.63;3.80;;;;;;;13.30;37.34;100330.56;113812;1196;103259;-84
2021/04/03 09:58:26;;;;;;;5.10;3.97;;;;;;;12.54;38.23;100321.77;113826;1196;103155;-81
2021/04/03 10:00:53;;;;;;;5.00;3.48;;;;;;;11.87;38.97;100326.70;113793;1195;103222;-82
2021/04/03 10:03:20;;;;;;;6.40;3.15;;;;;;;11.29;40.11;100333.84;113870;1196;103507;-83
2021/04/03 10:05:47;;;;;;;3.70;2.93;;;;;;;10.79;41.42;100329.97;113908;1196;103230;-83
2021/04/03 10:08:13;;;;;;;3.55;2.78;;;;;;;10.33;42.05;100326.76;113927;1196;103144;-83
2021/04/03 10:10:40;;;;;;;3.83;3.27;;;;;;;10.88;41.46;100331.50;113813;1196;103248;-83
2021/04/03 10:13:10;;;;;;;3.60;3.10;;;;;;;13.43;36.45;100319.41;113866;1196;103185;-86
2021/04/03 10:15:37;;;;;;;3.23;2.43;;;;;;;15.63;31.96;100308.00;113667;1196;103259;-81
2021/04/03 10:18:05;;;;;;;2.20;2.00;;;;;;;17.34;28.67;100300.94;113745;1196;103092;-85
2021/04/03 10:20:32;;;;;;;3.60;2.03;;;;;;;18.87;27.88;100298.22;113655;1196;103091;-86
2021/04/03 10:22:58;;;;;;;2.90;2.00;;;;;;;19.84;26.27;100304.64;113768;1196;103280;-82
2021/04/03 10:25:39;;;;;;;3.70;2.20;;;;;;;18.42;26.04;100301.91;113782;1196;103297;-85
2021/04/03 10:28:20;;;;;;;3.55;1.60;;;;;;;19.16;24.24;100300.92;113714;1196;103185;-80
2021/04/03 10:51:15;;;;;;;2.88;2.45;;;;;;;13.30;34.07;100322.53;113866;1192;103348;-88
2021/04/03 10:53:42;;;;;;;5.07;2.77;;;;;;;13.33;34.19;100316.20;114247;1196;103207;-81
2021/04/03 10:56:09;;;;;;;3.75;2.40;;;;;;;13.15;34.70;100309.74;114000;1196;103675;-81
2021/04/03 10:58:36;;;;;;;3.07;2.33;;;;;;;13.14;36.07;100313.34;114155;1196;103242;-84
2021/04/03 11:01:04;;;;;;;3.23;1.90;;;;;;;13.07;34.96;100307.36;114327;1196;103124;-83
2021/04/03 11:03:31;;;;;;;3.43;2.70;;;;;;;12.77;35.64;100304.92;114291;1196;104036;-83
2021/04/03 11:05:58;;;;;;;3.43;2.27;;;;;;;12.48;34.90;100303.31;114140;1196;103282;-85
2021/04/03 11:08:25;;;;;;;3.43;2.75;;;;;;;12.34;35.13;100301.12;114253;1196;104255;-84
2021/04/03 11:10:52;;;;;;;2.43;2.23;;;;;;;12.34;35.94;100304.67;114452;1196;103091;-83
2021/04/03 11:13:18;;;;;;;2.85;2.30;;;;;;;12.34;35.11;100309.13;114329;1196;103188;-83
2021/04/03 11:15:59;;;;;;;2.83;2.20;;;;;;;11.95;33.32;100304.24;114124;1200;103360;-83
2021/04/03 11:18:27;;;;;;;3.47;1.90;;;;;;;11.66;36.10;100303.36;113877;1199;103136;-82
2021/04/03 11:20:56;;;;;;;2.78;1.98;;;;;;;11.65;34.80;100298.94;113858;1199;103283;-82
2021/04/03 11:23:23;;;;;;;2.80;2.40;;;;;;;11.52;34.96;100302.02;113858;1199;104115;-85
2021/04/03 11:25:50;;;;;;;2.00;1.80;;;;;;;11.41;35.15;100305.94;113999;1198;103168;-87
2021/04/03 11:28:17;;;;;;;3.17;2.33;;;;;;;11.33;36.55;100306.20;114464;1199;103305;-90
2021/04/03 11:30:45;;;;;;;3.37;2.90;;;;;;;11.06;35.19;100286.58;114520;1200;103412;-83
2021/04/03 11:33:13;;;;;;;3.20;2.30;;;;;;;10.68;34.96;100308.10;114568;1200;103232;-85
2021/04/03 11:35:41;;;;;;;1.97;1.77;;;;;;;10.50;35.94;100309.47;114429;1200;103127;-86
2021/04/03 11:38:08;;;;;;;1.98;1.70;;;;;;;10.33;34.51;100308.13;114481;1200;103628;-84
2021/04/03 11:40:49;;;;;;;2.48;2.28;;;;;;;10.33;34.83;100313.45;114415;1200;103130;-85
2021/04/03 11:43:18;;;;;;;3.33;2.60;;;;;;;10.33;34.65;100313.45;114039;1200;103941;-84
2021/04/03 11:45:46;;;;;;;2.78;2.33;;;;;;;10.20;33.73;100320.01;114402;1201;103197;-89
2021/04/03 11:48:13;;;;;;;3.13;2.57;;;;;;;10.03;35.86;100347.05;114341;1202;103107;-91
2021/04/03 11:50:41;;;;;;;3.98;2.63;;;;;;;9.68;42.00;100352.30;114413;1202;104334;-83
2021/04/03 11:53:07;;;;;;;8.80;2.83;;;;;;;9.22;45.42;100355.98;114265;1200;103150;-85
2021/04/03 11:55:34;;;;;;;2.70;2.20;;;;;;;8.83;47.11;100380.68;113955;1199;103203;-87